createdAt,value
2019-05-21T00:00:27.581Z,16.13
2019-05-21T00:02:56.322Z,15.91
2019-05-21T00:05:25.018Z,15.83
2019-05-21T00:07:53.726Z,15.77
2019-05-21T00:10:22.498Z,15.66
2019-05-21T00:12:51.230Z,15.67
2019-05-21T00:15:21.018Z,15.71
2019-05-21T00:17:49.717Z,15.61
2019-05-21T00:20:18.519Z,15.42
2019-05-21T00:22:47.256Z,15.36
2019-05-21T00:25:17.366Z,15.27
2019-05-21T00:27:46.432Z,15.21
2019-05-21T00:30:51.027Z,15.11
2019-05-21T00:33:55.653Z,15.16
2019-05-21T00:37:01.698Z,15.20
2019-05-21T00:40:06.797Z,15.27
2019-05-21T00:42:38.416Z,15.26
2019-05-21T00:45:12.006Z,15.32
2019-05-21T00:47:40.692Z,15.33
2019-05-21T00:50:10.393Z,15.28
2019-05-21T00:52:39.140Z,15.27
2019-05-21T00:55:08.074Z,15.08
2019-05-21T00:57:36.823Z,14.98
2019-05-21T01:00:08.838Z,15.00
2019-05-21T01:02:37.588Z,15.00
2019-05-21T01:05:06.694Z,14.94
2019-05-21T01:07:35.452Z,14.66
2019-05-21T01:10:06.371Z,14.80
2019-05-21T01:12:35.085Z,14.93
2019-05-21T01:15:05.902Z,14.91
2019-05-21T01:17:34.604Z,14.87
2019-05-21T01:20:03.351Z,14.92
2019-05-21T01:22:32.059Z,14.97
2019-05-21T01:25:00.767Z,15.03
2019-05-21T01:27:29.471Z,15.06
2019-05-21T01:29:58.172Z,15.07
2019-05-21T01:32:26.911Z,14.95
2019-05-21T01:34:55.610Z,14.83
2019-05-21T01:37:24.318Z,14.85
2019-05-21T01:39:53.027Z,14.91
2019-05-21T01:42:21.731Z,14.86
2019-05-21T01:44:50.465Z,14.78
2019-05-21T01:47:19.176Z,14.74
2019-05-21T01:49:47.880Z,14.67
2019-05-21T01:52:16.601Z,14.60
2019-05-21T01:54:45.312Z,14.66
2019-05-21T01:57:14.047Z,14.60
2019-05-21T01:59:42.753Z,14.63
2019-05-21T02:02:11.475Z,14.56
2019-05-21T02:04:40.184Z,14.55
2019-05-21T02:07:08.885Z,14.51
2019-05-21T02:09:55.565Z,14.56
2019-05-21T02:12:24.270Z,14.48
2019-05-21T02:14:52.971Z,14.40
2019-05-21T02:17:21.684Z,14.39
2019-05-21T02:19:50.395Z,14.20
2019-05-21T02:22:19.146Z,14.12
2019-05-21T02:24:47.955Z,14.01
2019-05-21T02:27:16.667Z,13.97
2019-05-21T02:29:45.386Z,13.86
2019-05-21T02:32:14.087Z,13.96
2019-05-21T02:34:42.845Z,13.94
2019-05-21T02:37:11.559Z,13.95
2019-05-21T02:39:40.260Z,13.97
2019-05-21T02:42:08.971Z,13.82
2019-05-21T02:44:37.667Z,13.83
2019-05-21T02:47:06.416Z,13.76
2019-05-21T02:49:35.150Z,13.69
2019-05-21T02:52:03.852Z,13.73
2019-05-21T02:54:40.737Z,13.77
2019-05-21T02:57:02.995Z,13.86
2019-05-21T02:59:31.749Z,13.89
2019-05-21T03:02:05.024Z,13.88
2019-05-21T03:04:33.838Z,13.90
2019-05-21T03:07:17.525Z,13.83
2019-05-21T03:09:48.137Z,13.76
2019-05-21T03:12:17.922Z,13.73
2019-05-21T03:14:47.377Z,13.81
2019-05-21T03:17:16.083Z,13.75
2019-05-21T03:19:44.872Z,13.75
2019-05-21T03:22:13.584Z,13.73
2019-05-21T03:24:42.403Z,13.82
2019-05-21T03:27:11.712Z,13.92
2019-05-21T03:29:40.425Z,14.39
2019-05-21T03:32:09.178Z,15.10
2019-05-21T03:34:38.010Z,15.60
2019-05-21T03:37:06.730Z,16.17
2019-05-21T03:39:35.502Z,16.65
2019-05-21T03:42:04.309Z,17.11
2019-05-21T03:44:33.324Z,17.50
2019-05-21T03:47:02.020Z,18.54
2019-05-21T03:49:30.740Z,18.83
2019-05-21T03:51:59.483Z,19.03
2019-05-21T03:54:28.190Z,19.58
2019-05-21T03:56:56.901Z,20.34
2019-05-21T03:59:25.668Z,21.08
2019-05-21T04:01:54.373Z,21.85
2019-05-21T04:04:23.082Z,22.59
2019-05-21T04:06:52.785Z,23.38
2019-05-21T04:09:21.779Z,23.95
2019-05-21T04:11:53.300Z,24.31
2019-05-21T04:14:34.263Z,24.55
2019-05-21T04:17:07.591Z,24.37
2019-05-21T04:19:44.060Z,25.06
2019-05-21T04:22:15.718Z,25.28
2019-05-21T04:24:44.926Z,25.60
2019-05-21T04:27:14.839Z,25.94
2019-05-21T04:29:43.751Z,26.51
2019-05-21T04:32:12.455Z,26.74
2019-05-21T04:34:41.299Z,26.54
2019-05-21T04:37:11.786Z,26.92
2019-05-21T04:39:40.457Z,27.26
2019-05-21T04:42:09.291Z,27.64
2019-05-21T04:44:37.986Z,27.95
2019-05-21T04:47:06.693Z,28.22
2019-05-21T04:49:35.412Z,28.51
2019-05-21T04:52:04.117Z,28.52
2019-05-21T04:54:32.872Z,28.73
2019-05-21T04:57:01.587Z,29.01
2019-05-21T04:59:30.307Z,28.79
2019-05-21T05:01:59.047Z,29.01
2019-05-21T05:04:27.766Z,29.22
2019-05-21T05:06:56.513Z,29.81
2019-05-21T05:09:25.220Z,30.21
2019-05-21T05:11:53.924Z,30.08
2019-05-21T05:14:22.641Z,30.30
2019-05-21T05:16:54.303Z,30.25
2019-05-21T05:19:23.043Z,30.43
2019-05-21T05:21:51.758Z,30.24
2019-05-21T05:24:20.474Z,29.99
2019-05-21T05:26:49.178Z,29.97
2019-05-21T05:29:17.892Z,29.56
2019-05-21T05:31:46.647Z,29.64
2019-05-21T05:34:15.361Z,29.07
2019-05-21T05:36:44.073Z,29.58
2019-05-21T05:39:14.551Z,29.73
2019-05-21T05:41:43.264Z,29.87
2019-05-21T05:44:12.023Z,30.00
2019-05-21T05:46:40.764Z,30.73
2019-05-21T05:49:11.039Z,30.88
2019-05-21T05:51:39.752Z,30.78
2019-05-21T05:54:08.486Z,30.82
2019-05-21T05:56:37.217Z,30.48
2019-05-21T05:59:05.932Z,31.11
2019-05-21T06:01:35.247Z,30.41
2019-05-21T06:04:03.962Z,29.38
2019-05-21T06:06:32.678Z,28.15
2019-05-21T06:09:01.429Z,26.83
2019-05-21T06:11:30.134Z,25.39
2019-05-21T06:13:58.840Z,24.28
2019-05-21T06:16:27.563Z,23.65
2019-05-21T06:18:56.275Z,23.65
2019-05-21T06:21:25.042Z,23.43
2019-05-21T06:23:53.748Z,23.25
2019-05-21T06:26:22.566Z,23.08
2019-05-21T06:28:51.299Z,22.83
2019-05-21T06:31:20.010Z,22.85
2019-05-21T06:33:48.755Z,23.05
2019-05-21T06:36:17.491Z,23.24
2019-05-21T06:38:46.182Z,23.39
2019-05-21T06:41:15.173Z,23.28
2019-05-21T06:43:43.894Z,23.40
2019-05-21T06:46:12.654Z,23.48
2019-05-21T06:48:41.373Z,23.36
2019-05-21T06:51:10.196Z,23.28
2019-05-21T06:53:38.964Z,22.56
2019-05-21T06:56:07.979Z,22.25
2019-05-21T06:58:37.000Z,22.54
2019-05-21T07:01:05.836Z,22.60
2019-05-21T07:03:34.536Z,22.87
2019-05-21T07:06:03.252Z,22.88
2019-05-21T07:08:35.108Z,22.51
2019-05-21T07:11:02.430Z,22.39
2019-05-21T07:13:31.330Z,22.22
2019-05-21T07:16:00.054Z,22.45
2019-05-21T07:18:28.735Z,23.04
2019-05-21T07:20:57.454Z,23.47
2019-05-21T07:23:26.225Z,23.50
2019-05-21T07:25:54.944Z,23.20
2019-05-21T07:28:23.666Z,23.06
2019-05-21T07:30:52.391Z,23.08
2019-05-21T07:33:21.978Z,23.34
2019-05-21T07:35:50.733Z,23.17
2019-05-21T07:38:19.448Z,23.39
2019-05-21T07:40:48.162Z,22.60
2019-05-21T07:43:16.903Z,22.57
2019-05-21T07:45:45.618Z,23.10
2019-05-21T07:48:14.834Z,23.53
2019-05-21T07:50:43.585Z,23.87
2019-05-21T07:53:12.298Z,23.31
2019-05-21T07:55:41.015Z,22.99
2019-05-21T07:58:09.786Z,22.96
2019-05-21T08:00:38.494Z,23.03
2019-05-21T08:03:07.209Z,22.71
2019-05-21T08:05:35.936Z,22.66
2019-05-21T08:08:04.646Z,22.95
2019-05-21T08:10:33.391Z,22.57
2019-05-21T08:13:02.100Z,22.26
2019-05-21T08:15:30.806Z,22.52
2019-05-21T08:17:59.523Z,22.85
2019-05-21T08:20:28.524Z,23.03
2019-05-21T08:22:57.282Z,22.43
2019-05-21T08:25:25.994Z,22.23
2019-05-21T08:27:54.709Z,22.28
2019-05-21T08:30:23.490Z,22.56
2019-05-21T08:32:52.216Z,22.53
2019-05-21T08:35:20.963Z,22.51
2019-05-21T08:37:49.678Z,22.33
2019-05-21T08:40:18.887Z,22.51
2019-05-21T08:42:47.597Z,22.65
2019-05-21T08:45:16.418Z,23.03
2019-05-21T08:47:45.163Z,23.29
2019-05-21T08:50:14.064Z,23.03
2019-05-21T08:52:42.778Z,22.98
2019-05-21T08:55:11.485Z,23.08
2019-05-21T08:57:40.191Z,23.02
2019-05-21T09:00:15.552Z,22.95
2019-05-21T09:02:44.253Z,23.20
2019-05-21T09:05:13.156Z,23.63
2019-05-21T09:07:41.872Z,23.43
2019-05-21T09:10:10.881Z,22.96
2019-05-21T09:12:39.584Z,22.86
2019-05-21T09:15:09.685Z,23.15
2019-05-21T09:17:38.439Z,23.55
2019-05-21T09:20:09.215Z,23.85
2019-05-21T09:22:39.263Z,24.11
2019-05-21T09:25:08.060Z,23.87
2019-05-21T09:27:37.469Z,23.58
2019-05-21T09:30:11.362Z,23.58
2019-05-21T09:32:40.039Z,23.89
2019-05-21T09:35:10.235Z,24.18
2019-05-21T09:37:39.456Z,23.96
2019-05-21T09:40:09.757Z,23.62
2019-05-21T09:42:38.605Z,23.16
2019-05-21T09:45:08.729Z,23.51
2019-05-21T09:47:37.561Z,23.85
2019-05-21T09:50:07.958Z,23.75
2019-05-21T09:52:36.651Z,23.64
2019-05-21T09:55:08.947Z,23.65
2019-05-21T09:57:39.436Z,23.67
2019-05-21T10:00:20.771Z,23.84
2019-05-21T10:02:49.487Z,24.08
2019-05-21T10:05:18.289Z,24.14
2019-05-21T10:07:47.048Z,24.06
2019-05-21T10:10:15.855Z,23.97
2019-05-21T10:12:44.558Z,24.15
2019-05-21T10:15:13.868Z,24.06
2019-05-21T10:17:42.588Z,24.40
2019-05-21T10:20:11.428Z,24.58
2019-05-21T10:22:40.136Z,24.63
2019-05-21T10:25:08.682Z,24.72
2019-05-21T10:27:37.416Z,24.61
2019-05-21T10:30:06.921Z,24.71
2019-05-21T10:32:35.619Z,24.97
2019-05-21T10:35:07.459Z,24.96
2019-05-21T10:37:36.303Z,24.51
2019-05-21T10:40:07.166Z,24.59
2019-05-21T10:42:35.957Z,24.63
2019-05-21T10:45:06.319Z,24.46
2019-05-21T10:47:35.037Z,24.72
2019-05-21T10:50:05.554Z,24.47
2019-05-21T10:52:34.301Z,24.65
2019-05-21T10:55:03.016Z,24.38
2019-05-21T10:57:31.728Z,24.62
2019-05-21T11:00:00.443Z,24.72
2019-05-21T11:02:33.489Z,24.63
2019-05-21T11:05:09.818Z,24.80
2019-05-21T11:07:38.623Z,25.16
2019-05-21T11:10:09.090Z,25.23
2019-05-21T11:12:37.786Z,24.74
2019-05-21T11:15:07.896Z,24.71
2019-05-21T11:17:50.043Z,25.07
2019-05-21T11:20:07.239Z,24.87
2019-05-21T11:22:35.980Z,24.90
2019-05-21T11:25:06.382Z,25.25
2019-05-21T11:27:35.087Z,25.48
2019-05-21T11:30:05.119Z,25.78
2019-05-21T11:32:33.822Z,26.18
2019-05-21T11:35:02.575Z,26.24
2019-05-21T11:37:31.288Z,26.39
2019-05-21T11:39:59.993Z,26.75
2019-05-21T11:42:28.714Z,26.68
2019-05-21T11:44:57.431Z,26.68
2019-05-21T11:47:26.181Z,26.58
2019-05-21T11:49:54.907Z,26.51
2019-05-21T11:52:23.612Z,26.51
2019-05-21T11:54:55.789Z,26.78
2019-05-21T11:57:22.759Z,27.09
2019-05-21T11:59:51.504Z,26.98
2019-05-21T12:02:20.220Z,26.86
2019-05-21T12:04:48.939Z,26.93
2019-05-21T12:07:17.665Z,25.90
2019-05-21T12:09:46.370Z,25.81
2019-05-21T12:12:16.584Z,25.87
2019-05-21T12:14:45.294Z,25.84
2019-05-21T12:17:14.005Z,25.79
2019-05-21T12:19:42.715Z,26.37
2019-05-21T12:22:11.423Z,26.48
2019-05-21T12:24:40.138Z,26.59
2019-05-21T12:27:08.839Z,26.74
2019-05-21T12:29:37.649Z,26.74
2019-05-21T12:32:06.367Z,26.76
2019-05-21T12:34:38.768Z,26.76
2019-05-21T12:37:05.633Z,26.10
2019-05-21T12:39:34.451Z,26.07
2019-05-21T12:42:03.228Z,26.26
2019-05-21T12:44:31.979Z,26.53
2019-05-21T12:47:00.686Z,26.28
2019-05-21T12:49:29.433Z,25.90
2019-05-21T12:51:58.135Z,25.81
2019-05-21T12:54:26.845Z,26.19
2019-05-21T12:56:55.591Z,26.60
2019-05-21T12:59:24.292Z,26.65
2019-05-21T13:01:53.024Z,26.97
2019-05-21T13:04:21.754Z,27.14
2019-05-21T13:06:50.472Z,26.49
2019-05-21T13:09:32.418Z,26.02
2019-05-21T13:11:49.621Z,25.90
2019-05-21T13:14:19.001Z,26.28
2019-05-21T13:16:48.044Z,26.74
2019-05-21T13:19:16.763Z,27.21
2019-05-21T13:21:45.588Z,26.60
2019-05-21T13:24:14.281Z,26.21
2019-05-21T13:26:42.989Z,26.60
2019-05-21T13:29:11.711Z,26.30
2019-05-21T13:31:40.424Z,26.77
2019-05-21T13:34:09.170Z,27.17
2019-05-21T13:36:37.879Z,27.71
2019-05-21T13:39:09.186Z,27.88
2019-05-21T13:41:37.906Z,27.78
2019-05-21T13:44:06.620Z,27.92
2019-05-21T13:46:35.849Z,27.95
2019-05-21T13:49:05.074Z,27.96
2019-05-21T13:51:33.780Z,28.27
2019-05-21T13:54:02.535Z,28.56
2019-05-21T13:56:31.239Z,28.96
2019-05-21T13:59:00.054Z,28.90
2019-05-21T14:01:39.992Z,28.68
2019-05-21T14:03:59.212Z,28.51
2019-05-21T14:06:27.921Z,28.50
2019-05-21T14:08:56.651Z,28.52
2019-05-21T14:11:25.758Z,28.37
2019-05-21T14:13:54.624Z,28.04
2019-05-21T14:16:23.642Z,27.71
2019-05-21T14:18:52.644Z,27.64
2019-05-21T14:21:21.375Z,27.64
2019-05-21T14:23:50.082Z,27.56
2019-05-21T14:26:18.791Z,26.67
2019-05-21T14:28:47.507Z,27.01
2019-05-21T14:31:16.246Z,27.01
2019-05-21T14:33:46.867Z,27.31
2019-05-21T14:36:15.454Z,27.31
2019-05-21T14:38:44.167Z,27.07
2019-05-21T14:41:12.875Z,27.39
2019-05-21T14:43:41.585Z,27.51
2019-05-21T14:46:10.220Z,27.45
2019-05-21T14:48:39.030Z,27.26
2019-05-21T14:51:07.733Z,27.26
2019-05-21T14:53:36.438Z,27.20
2019-05-21T14:56:05.202Z,27.35
2019-05-21T14:58:33.914Z,27.40
2019-05-21T15:01:02.618Z,27.41
2019-05-21T15:03:31.365Z,27.47
2019-05-21T15:06:00.074Z,27.51
2019-05-21T15:08:28.813Z,27.40
2019-05-21T15:10:57.503Z,27.40
2019-05-21T15:13:26.216Z,27.20
2019-05-21T15:15:55.015Z,27.18
2019-05-21T15:18:23.770Z,27.31
2019-05-21T15:20:56.844Z,27.31
2019-05-21T15:23:25.672Z,27.31
2019-05-21T15:25:54.370Z,27.36
2019-05-21T15:28:23.085Z,27.29
2019-05-21T15:30:51.787Z,27.26
2019-05-21T15:33:20.544Z,27.25
2019-05-21T15:35:49.259Z,27.24
2019-05-21T15:38:18.141Z,27.29
2019-05-21T15:40:46.890Z,27.19
2019-05-21T15:43:15.604Z,27.21
2019-05-21T15:45:44.307Z,27.21
2019-05-21T15:48:13.051Z,27.06
2019-05-21T15:50:41.759Z,26.89
2019-05-21T15:53:10.482Z,26.69
2019-05-21T15:55:39.177Z,26.63
2019-05-21T15:58:07.980Z,27.51
2019-05-21T16:00:36.723Z,27.92
2019-05-21T16:03:05.629Z,27.06
2019-05-21T16:05:34.647Z,26.90
2019-05-21T16:08:03.391Z,26.64
2019-05-21T16:10:32.113Z,26.61
2019-05-21T16:13:00.823Z,26.20
2019-05-21T16:15:29.542Z,25.92
2019-05-21T16:17:58.245Z,25.57
2019-05-21T16:20:26.993Z,25.44
2019-05-21T16:22:55.826Z,25.45
2019-05-21T16:25:24.592Z,25.52
2019-05-21T16:27:53.335Z,25.36
2019-05-21T16:30:22.049Z,25.26
2019-05-21T16:32:50.766Z,25.15
2019-05-21T16:35:19.583Z,25.09
2019-05-21T16:37:48.295Z,25.22
2019-05-21T16:40:18.131Z,25.42
2019-05-21T16:42:46.837Z,26.46
2019-05-21T16:45:16.980Z,26.82
2019-05-21T16:47:46.753Z,27.34
2019-05-21T16:50:16.110Z,28.17
2019-05-21T16:52:45.271Z,28.84
2019-05-21T16:55:14.790Z,28.31
2019-05-21T16:57:43.500Z,27.75
2019-05-21T17:00:15.212Z,27.19
2019-05-21T17:02:44.126Z,26.91
2019-05-21T17:05:12.990Z,26.75
2019-05-21T17:07:41.682Z,26.45
2019-05-21T17:10:12.191Z,26.27
2019-05-21T17:12:40.947Z,26.06
2019-05-21T17:15:09.961Z,25.68
2019-05-21T17:17:38.706Z,25.45
2019-05-21T17:20:10.730Z,25.26
2019-05-21T17:22:39.505Z,25.01
2019-05-21T17:25:10.118Z,24.83
2019-05-21T17:27:38.833Z,24.70
2019-05-21T17:30:09.363Z,24.57
2019-05-21T17:32:39.036Z,24.36
2019-05-21T17:35:08.862Z,24.24
2019-05-21T17:37:37.698Z,24.15
2019-05-21T17:40:07.494Z,24.08
2019-05-21T17:42:36.201Z,23.93
2019-05-21T17:45:07.908Z,23.72
2019-05-21T17:47:36.627Z,23.63
2019-05-21T17:50:09.420Z,23.52
2019-05-21T17:52:38.176Z,23.40
2019-05-21T17:55:07.212Z,23.29
2019-05-21T17:57:36.005Z,23.13
2019-05-21T18:00:07.306Z,22.87
2019-05-21T18:02:36.413Z,22.66
2019-05-21T18:05:07.519Z,22.27
2019-05-21T18:07:37.473Z,21.98
2019-05-21T18:10:09.275Z,21.71
2019-05-21T18:12:38.848Z,21.42
2019-05-21T18:15:09.057Z,21.20
2019-05-21T18:17:37.763Z,21.00
2019-05-21T18:20:11.349Z,20.93
2019-05-21T18:22:42.052Z,20.98
2019-05-21T18:25:11.661Z,20.90
2019-05-21T18:27:40.416Z,20.85
2019-05-21T18:30:09.633Z,21.35
2019-05-21T18:32:38.341Z,21.14
2019-05-21T18:35:08.458Z,21.08
2019-05-21T18:37:38.421Z,21.15
2019-05-21T18:40:09.160Z,21.22
2019-05-21T18:42:37.962Z,21.02
2019-05-21T18:45:07.462Z,21.02
2019-05-21T18:47:36.310Z,20.95
2019-05-21T18:50:07.577Z,21.02
2019-05-21T18:52:36.285Z,21.02
2019-05-21T18:55:06.904Z,21.03
2019-05-21T18:57:35.742Z,21.07
2019-05-21T19:00:06.920Z,21.07
2019-05-21T19:02:35.620Z,21.07
2019-05-21T19:05:06.265Z,21.12
2019-05-21T19:07:35.070Z,21.04
2019-05-21T19:10:05.386Z,20.99
2019-05-21T19:12:38.191Z,20.93
2019-05-21T19:15:06.524Z,20.85
2019-05-21T19:17:36.066Z,20.79
2019-05-21T19:20:06.881Z,20.70
2019-05-21T19:22:36.485Z,20.62
2019-05-21T19:25:09.194Z,20.58
2019-05-21T19:27:37.926Z,20.48
2019-05-21T19:30:09.242Z,20.37
2019-05-21T19:32:38.011Z,20.29
2019-05-21T19:35:07.656Z,20.33
2019-05-21T19:37:36.376Z,20.38
2019-05-21T19:40:06.295Z,20.37
2019-05-21T19:42:35.026Z,20.29
2019-05-21T19:45:07.288Z,20.32
2019-05-21T19:47:36.096Z,20.31
2019-05-21T19:50:07.759Z,20.31
2019-05-21T19:52:36.533Z,20.30
2019-05-21T19:55:07.150Z,20.21
2019-05-21T19:57:36.376Z,20.20
2019-05-21T20:00:07.613Z,20.23
2019-05-21T20:02:36.629Z,20.16
2019-05-21T20:05:07.404Z,20.23
2019-05-21T20:07:36.119Z,20.25
2019-05-21T20:10:09.128Z,20.23
2019-05-21T20:12:38.299Z,20.12
2019-05-21T20:15:08.614Z,19.98
2019-05-21T20:17:39.008Z,19.78
2019-05-21T20:20:10.647Z,19.45
2019-05-21T20:22:41.044Z,19.22
2019-05-21T20:25:11.340Z,19.08
2019-05-21T20:27:40.667Z,18.86
2019-05-21T20:30:13.674Z,18.60
2019-05-21T20:32:44.391Z,18.43
2019-05-21T20:35:15.445Z,18.22
2019-05-21T20:37:45.207Z,18.06
2019-05-21T20:40:15.065Z,17.89
2019-05-21T20:42:44.979Z,17.75
2019-05-21T20:45:15.751Z,17.68
2019-05-21T20:47:46.148Z,17.49
2019-05-21T20:50:16.647Z,17.48
2019-05-21T20:52:46.192Z,17.39
2019-05-21T20:55:17.221Z,17.37
2019-05-21T20:57:46.010Z,17.31
2019-05-21T21:00:18.041Z,17.25
2019-05-21T21:02:47.340Z,17.20
2019-05-21T21:05:17.049Z,17.11
2019-05-21T21:07:45.756Z,17.11
2019-05-21T21:10:14.764Z,17.14
2019-05-21T21:12:44.821Z,17.10
2019-05-21T21:15:14.719Z,17.16
2019-05-21T21:17:44.327Z,17.17
2019-05-21T21:20:13.346Z,17.16
2019-05-21T21:22:42.059Z,17.17
2019-05-21T21:25:12.599Z,17.14
2019-05-21T21:27:42.513Z,17.07
2019-05-21T21:30:11.605Z,16.96
2019-05-21T21:32:40.414Z,17.02
2019-05-21T21:35:10.920Z,17.00
2019-05-21T21:37:39.665Z,16.91
2019-05-21T21:40:10.139Z,16.86
2019-05-21T21:42:39.752Z,16.79
2019-05-21T21:45:09.594Z,16.72
2019-05-21T21:47:39.600Z,16.71
2019-05-21T21:50:08.701Z,16.60
2019-05-21T21:52:37.515Z,16.56
2019-05-21T21:55:07.415Z,16.53
2019-05-21T21:57:36.273Z,16.51
2019-05-21T22:00:13.236Z,16.46
2019-05-21T22:02:42.800Z,16.40
2019-05-21T22:05:12.812Z,16.37
2019-05-21T22:07:41.510Z,16.37
2019-05-21T22:10:11.392Z,16.31
2019-05-21T22:12:40.213Z,16.33
2019-05-21T22:15:09.955Z,16.30
2019-05-21T22:17:38.671Z,16.30
2019-05-21T22:20:09.492Z,16.37
2019-05-21T22:22:38.303Z,16.37
2019-05-21T22:25:07.516Z,16.43
2019-05-21T22:27:36.266Z,16.40
2019-05-21T22:30:06.506Z,16.35
2019-05-21T22:32:35.351Z,16.27
2019-05-21T22:35:04.775Z,16.24
2019-05-21T22:37:33.478Z,16.21
2019-05-21T22:40:02.314Z,16.22
2019-05-21T22:42:31.337Z,16.25
2019-05-21T22:45:07.762Z,16.24
2019-05-21T22:47:31.176Z,16.19
2019-05-21T22:49:59.892Z,16.20
2019-05-21T22:52:28.804Z,16.20
2019-05-21T22:54:57.511Z,16.17
2019-05-21T22:57:26.466Z,16.23
2019-05-21T22:59:55.135Z,16.20
2019-05-21T23:02:25.510Z,16.14
2019-05-21T23:04:54.487Z,15.96
2019-05-21T23:07:23.229Z,15.82
2019-05-21T23:09:53.435Z,15.80
2019-05-21T23:12:22.700Z,15.79
2019-05-21T23:14:51.867Z,15.70
2019-05-21T23:17:21.173Z,15.61
2019-05-21T23:19:50.529Z,15.58
2019-05-21T23:22:22.316Z,15.57
2019-05-21T23:24:51.126Z,15.68
2019-05-21T23:27:20.876Z,15.68
2019-05-21T23:29:50.060Z,15.77
2019-05-21T23:32:18.861Z,15.76
2019-05-21T23:34:47.614Z,15.71
2019-05-21T23:37:17.881Z,15.76
2019-05-21T23:39:48.151Z,15.77
2019-05-21T23:42:28.651Z,15.75
2019-05-21T23:44:47.388Z,15.70
2019-05-21T23:47:16.130Z,15.71
2019-05-21T23:49:44.840Z,15.71
2019-05-21T23:52:13.543Z,15.68
2019-05-21T23:54:42.303Z,15.65
2019-05-21T23:57:14.184Z,15.63
2019-05-21T23:59:42.894Z,15.62
